createdAt,value
2024-02-21T13:01:51.727Z,30
2024-02-21T13:03:34.884Z,28
2024-02-21T13:04:10.731Z,28
2024-02-21T13:09:10.032Z,29
2024-02-21T13:14:19.463Z,26
2024-02-21T13:19:29.071Z,25
2024-02-21T13:24:38.138Z,24
2024-02-21T13:29:47.004Z,24
2024-02-21T13:34:56.617Z,24
2024-02-21T13:40:06.007Z,24
2024-02-21T13:45:15.214Z,23
2024-02-21T13:50:24.731Z,23
2024-02-21T13:55:34.364Z,23
2024-02-21T14:00:43.749Z,23
2024-02-21T14:05:52.970Z,23
2024-02-21T14:11:02.601Z,23
2024-02-21T14:16:12.095Z,23
2024-02-21T14:21:21.662Z,23
2024-02-21T14:26:31.386Z,23
2024-02-21T14:31:40.771Z,22
2024-02-21T14:36:50.217Z,23
2024-02-21T14:41:59.413Z,23
2024-02-21T14:47:08.869Z,23
2024-02-21T14:52:18.221Z,23
2024-02-21T14:57:27.596Z,23
2024-02-21T15:02:37.010Z,23
2024-02-21T15:07:47.345Z,23
2024-02-21T15:12:47.281Z,22
2024-02-21T15:17:57.157Z,23
2024-02-21T15:23:06.863Z,23
2024-02-21T15:28:15.531Z,23
2024-02-21T15:33:25.412Z,23
2024-02-21T15:38:34.545Z,23
2024-02-21T15:43:44.015Z,23
2024-02-21T15:48:53.364Z,23
2024-02-21T15:54:02.927Z,23
2024-02-21T15:59:12.290Z,23
2024-02-21T16:04:21.603Z,23
2024-02-21T16:09:31.137Z,23
2024-02-21T16:14:40.921Z,23
2024-02-21T16:19:50.082Z,23
2024-02-21T16:24:59.540Z,23
2024-02-21T16:30:09.328Z,23
2024-02-21T16:35:18.318Z,23
2024-02-21T16:40:27.883Z,23
2024-02-21T16:45:37.752Z,23
2024-02-21T16:50:53.216Z,23
2024-02-21T16:55:55.853Z,23
2024-02-21T17:01:06.349Z,23
2024-02-21T17:06:15.536Z,23
2024-02-21T17:11:23.052Z,23
2024-02-21T17:16:32.457Z,23
2024-02-21T17:21:41.901Z,23
2024-02-21T17:26:51.189Z,23
2024-02-21T17:32:01.012Z,24
2024-02-21T17:37:10.615Z,24
2024-02-21T17:42:20.163Z,24
2024-02-21T17:47:29.380Z,24
2024-02-21T17:52:38.607Z,24
2024-02-21T17:57:48.213Z,24
2024-02-21T18:02:58.071Z,24
2024-02-21T18:08:07.285Z,24
2024-02-21T18:13:16.729Z,24
2024-02-21T18:18:26.040Z,24
2024-02-21T18:23:35.550Z,24
2024-02-21T18:28:44.937Z,24
2024-02-21T18:33:54.665Z,24
2024-02-21T18:39:04.146Z,24
2024-02-21T18:44:13.541Z,24
2024-02-21T18:49:22.979Z,24
2024-02-21T18:54:32.432Z,24
2024-02-21T18:59:42.030Z,24
2024-02-21T19:04:51.168Z,24
2024-02-21T19:10:00.223Z,24
2024-02-21T19:15:09.652Z,24
2024-02-21T19:20:18.813Z,24
2024-02-21T19:25:30.287Z,24
2024-02-21T19:30:29.678Z,24
2024-02-21T19:35:39.288Z,24
2024-02-21T19:40:50.833Z,24
2024-02-21T19:45:57.341Z,24
2024-02-21T19:51:07.092Z,24
2024-02-21T19:56:16.861Z,24
2024-02-21T20:01:26.614Z,24
2024-02-21T20:06:36.145Z,24
2024-02-21T20:11:45.740Z,24
2024-02-21T20:16:55.658Z,24
2024-02-21T20:21:55.052Z,24
2024-02-21T20:27:04.513Z,24
2024-02-21T20:32:14.237Z,24
2024-02-21T20:37:23.422Z,24
2024-02-21T20:42:33.192Z,24
2024-02-21T20:47:45.313Z,24
2024-02-21T20:52:45.108Z,24
2024-02-21T20:57:54.776Z,24
2024-02-21T21:03:04.147Z,24
2024-02-21T21:08:14.424Z,24
2024-02-21T21:13:19.479Z,24
2024-02-21T21:18:22.876Z,24
2024-02-21T21:23:32.378Z,24
2024-02-21T21:28:41.968Z,24
2024-02-21T21:33:51.263Z,24
2024-02-21T21:39:00.813Z,24
2024-02-21T21:44:10.412Z,24
2024-02-21T21:49:19.714Z,24
2024-02-21T21:54:29.658Z,24
2024-02-21T21:59:39.970Z,24
2024-02-21T22:04:38.972Z,24
2024-02-21T22:09:48.496Z,24
2024-02-21T22:14:57.934Z,24
2024-02-21T22:20:07.786Z,24
2024-02-21T22:25:17.327Z,24
2024-02-21T22:30:27.269Z,24
2024-02-21T22:35:37.040Z,24
2024-02-21T22:40:46.531Z,24
2024-02-21T22:45:56.285Z,24
2024-02-21T22:51:05.686Z,24
2024-02-21T22:56:15.573Z,24
2024-02-21T23:01:24.557Z,24
2024-02-21T23:06:33.532Z,24
2024-02-21T23:11:43.244Z,24
2024-02-21T23:16:52.858Z,24
2024-02-21T23:22:02.800Z,24
2024-02-21T23:27:12.390Z,24
2024-02-21T23:32:22.006Z,24
2024-02-21T23:37:30.992Z,24
2024-02-21T23:42:40.404Z,24
2024-02-21T23:47:50.082Z,24
2024-02-21T23:52:59.687Z,24
2024-02-21T23:58:09.450Z,24
